createdAt,value
2023-03-16T00:00:58.476Z,0.05
2023-03-16T00:03:30.448Z,-0.03
2023-03-16T00:06:25.580Z,-0.04
2023-03-16T00:08:59.020Z,-0.14
2023-03-16T00:11:27.023Z,-0.22
2023-03-16T00:13:54.743Z,-0.24
2023-03-16T00:16:22.419Z,-0.23
2023-03-16T00:18:50.222Z,-0.28
2023-03-16T00:21:18.255Z,-0.19
2023-03-16T00:23:45.965Z,-0.28
2023-03-16T00:26:15.228Z,-0.36
2023-03-16T00:28:42.854Z,-0.33
2023-03-16T00:31:14.757Z,-0.31
2023-03-16T00:33:44.482Z,-0.34
2023-03-16T00:36:13.271Z,-0.41
2023-03-16T00:38:45.123Z,-0.41
2023-03-16T00:41:14.365Z,-0.43
2023-03-16T00:43:45.390Z,-0.37
2023-03-16T00:46:14.969Z,-0.40
2023-03-16T00:48:44.697Z,-0.49
2023-03-16T00:51:14.867Z,-0.46
2023-03-16T00:53:44.890Z,-0.41
2023-03-16T00:56:13.868Z,-0.42
2023-03-16T00:58:44.571Z,-0.39
2023-03-16T01:01:14.883Z,-0.37
2023-03-16T01:03:42.729Z,-0.49
2023-03-16T01:06:13.381Z,-0.57
2023-03-16T01:08:42.202Z,-0.57
2023-03-16T01:11:11.753Z,-0.51
2023-03-16T01:13:40.575Z,-0.59
2023-03-16T01:16:11.280Z,-0.53
2023-03-16T01:18:39.464Z,-0.50
2023-03-16T01:21:09.334Z,-0.50
2023-03-16T01:23:38.791Z,-0.53
2023-03-16T01:26:08.370Z,-0.57
2023-03-16T01:28:36.389Z,-0.57
2023-03-16T01:31:11.597Z,-0.60
2023-03-16T01:33:39.876Z,-0.46
2023-03-16T01:36:11.039Z,-0.53
2023-03-16T01:38:38.765Z,-0.47
2023-03-16T01:41:07.162Z,-0.58
2023-03-16T01:43:37.586Z,-0.58
2023-03-16T01:46:25.964Z,-0.58
2023-03-16T01:49:04.560Z,-0.63
2023-03-16T01:51:37.502Z,-0.62
2023-03-16T01:54:14.556Z,-0.69
2023-03-16T01:56:46.712Z,-0.66
2023-03-16T01:59:19.949Z,-0.66
2023-03-16T02:01:51.734Z,-0.64
2023-03-16T02:04:27.859Z,-0.53
2023-03-16T02:06:57.589Z,-0.57
2023-03-16T02:09:26.375Z,-0.62
2023-03-16T02:11:55.312Z,-0.64
2023-03-16T02:14:24.961Z,-0.66
2023-03-16T02:16:56.037Z,-0.66
2023-03-16T02:19:33.720Z,-0.65
2023-03-16T02:22:05.023Z,-0.64
2023-03-16T02:24:32.795Z,-0.64
2023-03-16T02:27:04.535Z,-0.62
2023-03-16T02:29:54.079Z,-0.56
2023-03-16T02:32:23.747Z,-0.75
2023-03-16T02:34:51.842Z,-0.76
2023-03-16T02:37:19.804Z,-0.67
2023-03-16T02:39:47.518Z,-0.77
2023-03-16T02:42:19.269Z,-0.69
2023-03-16T02:44:51.468Z,-0.70
2023-03-16T02:47:28.178Z,-0.52
2023-03-16T02:49:55.828Z,-0.51
2023-03-16T02:52:23.597Z,-0.60
2023-03-16T02:54:51.349Z,-0.58
2023-03-16T02:57:19.069Z,-0.55
2023-03-16T02:59:48.162Z,-0.35
2023-03-16T03:02:16.559Z,-0.27
2023-03-16T03:04:46.384Z,-0.25
2023-03-16T03:07:14.564Z,-0.35
2023-03-16T03:09:43.132Z,-0.41
2023-03-16T03:12:12.007Z,-0.50
2023-03-16T03:14:40.131Z,-0.49
2023-03-16T03:17:13.295Z,-0.48
2023-03-16T03:19:41.653Z,-0.40
2023-03-16T03:22:09.626Z,-0.36
2023-03-16T03:24:37.695Z,-0.46
2023-03-16T03:27:05.954Z,-0.48
2023-03-16T03:29:35.280Z,-0.46
2023-03-16T03:32:03.072Z,-0.41
2023-03-16T03:34:32.609Z,-0.34
2023-03-16T03:37:01.054Z,-0.38
2023-03-16T03:39:28.853Z,-0.32
2023-03-16T03:41:56.562Z,-0.44
2023-03-16T03:44:25.376Z,-0.48
2023-03-16T03:46:53.632Z,-0.32
2023-03-16T03:49:21.268Z,-0.34
2023-03-16T03:51:50.425Z,-0.34
2023-03-16T03:54:18.418Z,-0.19
2023-03-16T03:56:46.131Z,-0.12
2023-03-16T03:59:13.848Z,-0.05
2023-03-16T04:01:41.648Z,0.00
2023-03-16T04:04:09.448Z,0.04
2023-03-16T04:06:37.425Z,0.07
2023-03-16T04:09:06.815Z,-0.12
2023-03-16T04:11:34.714Z,-0.12
2023-03-16T04:14:02.351Z,-0.20
2023-03-16T04:16:30.055Z,-0.06
2023-03-16T04:18:58.835Z,0.06
2023-03-16T04:21:26.584Z,0.14
2023-03-16T04:23:54.776Z,0.27
2023-03-16T04:26:25.789Z,0.40
2023-03-16T04:28:53.676Z,0.38
2023-03-16T04:31:21.484Z,0.28
2023-03-16T04:33:49.524Z,0.20
2023-03-16T04:36:17.323Z,0.26
2023-03-16T04:38:45.260Z,0.22
2023-03-16T04:41:12.898Z,0.24
2023-03-16T04:43:43.195Z,0.20
2023-03-16T04:46:12.032Z,0.42
2023-03-16T04:48:39.787Z,0.39
2023-03-16T04:51:07.790Z,0.28
2023-03-16T04:53:35.578Z,0.28
2023-03-16T04:56:04.082Z,0.59
2023-03-16T04:58:31.888Z,0.76
2023-03-16T05:01:01.045Z,0.47
2023-03-16T05:03:28.896Z,0.72
2023-03-16T05:05:56.677Z,0.46
2023-03-16T05:08:24.475Z,0.65
2023-03-16T05:10:52.117Z,0.75
2023-03-16T05:13:19.879Z,0.58
2023-03-16T05:15:47.561Z,0.46
2023-03-16T05:18:17.018Z,0.34
2023-03-16T05:20:45.476Z,0.84
2023-03-16T05:23:13.404Z,0.67
2023-03-16T05:25:41.379Z,0.58
2023-03-16T05:28:09.249Z,0.79
2023-03-16T05:30:37.954Z,0.78
2023-03-16T05:33:05.886Z,0.80
2023-03-16T05:35:35.083Z,0.90
2023-03-16T05:38:02.795Z,0.96
2023-03-16T05:40:30.881Z,0.71
2023-03-16T05:43:00.298Z,0.95
2023-03-16T05:45:28.447Z,0.84
2023-03-16T05:47:56.138Z,0.93
2023-03-16T05:50:24.221Z,0.94
2023-03-16T05:52:54.212Z,1.14
2023-03-16T05:55:22.079Z,1.41
2023-03-16T05:57:49.802Z,1.49
2023-03-16T06:00:19.734Z,1.34
2023-03-16T06:02:49.002Z,1.53
2023-03-16T06:05:17.280Z,1.64
2023-03-16T06:07:45.489Z,1.67
2023-03-16T06:10:14.734Z,1.62
2023-03-16T06:12:42.660Z,1.60
2023-03-16T06:15:11.336Z,1.59
2023-03-16T06:17:40.177Z,1.21
2023-03-16T06:20:11.224Z,1.70
2023-03-16T06:22:39.415Z,1.56
2023-03-16T06:25:09.750Z,1.81
2023-03-16T06:27:40.101Z,2.30
2023-03-16T06:30:11.044Z,2.71
2023-03-16T06:32:41.935Z,2.52
2023-03-16T06:35:11.312Z,2.97
2023-03-16T06:37:39.033Z,3.15
2023-03-16T06:40:08.542Z,3.32
2023-03-16T06:42:36.415Z,3.28
2023-03-16T06:45:06.296Z,3.32
2023-03-16T06:47:34.037Z,3.00
2023-03-16T06:50:01.670Z,3.07
2023-03-16T06:52:29.562Z,3.00
2023-03-16T06:54:58.470Z,3.11
2023-03-16T06:57:26.308Z,3.05
2023-03-16T06:59:54.102Z,3.01
2023-03-16T07:02:23.835Z,2.88
2023-03-16T07:04:51.604Z,2.81
2023-03-16T07:07:19.395Z,2.70
2023-03-16T07:09:47.287Z,2.62
2023-03-16T07:12:15.309Z,2.60
2023-03-16T07:14:43.056Z,2.67
2023-03-16T07:17:11.327Z,2.71
2023-03-16T07:19:40.355Z,2.70
2023-03-16T07:22:08.081Z,2.77
2023-03-16T07:24:35.823Z,2.69
2023-03-16T07:27:03.606Z,2.78
2023-03-16T07:29:31.431Z,2.61
2023-03-16T07:31:59.141Z,3.01
2023-03-16T07:34:26.882Z,2.77
2023-03-16T07:36:55.921Z,2.89
2023-03-16T07:39:23.911Z,2.89
2023-03-16T07:41:51.538Z,2.80
2023-03-16T07:44:19.346Z,3.03
2023-03-16T07:46:47.032Z,3.21
2023-03-16T07:49:16.722Z,3.31
2023-03-16T07:51:44.498Z,3.58
2023-03-16T07:54:14.539Z,3.77
2023-03-16T07:56:48.783Z,4.17
2023-03-16T07:59:19.200Z,4.87
2023-03-16T08:01:51.441Z,5.31
2023-03-16T08:04:19.206Z,5.40
2023-03-16T08:06:47.800Z,5.56
2023-03-16T08:09:17.072Z,5.32
2023-03-16T08:11:45.792Z,5.51
2023-03-16T08:14:13.662Z,6.06
2023-03-16T08:16:41.335Z,6.19
2023-03-16T08:19:09.414Z,6.33
2023-03-16T08:21:53.132Z,5.86
2023-03-16T08:24:27.157Z,6.83
2023-03-16T08:26:55.056Z,7.45
2023-03-16T08:29:23.183Z,7.14
2023-03-16T08:31:50.811Z,7.27
2023-03-16T08:34:18.787Z,7.46
2023-03-16T08:36:46.428Z,7.55
2023-03-16T08:39:14.985Z,7.36
2023-03-16T08:41:46.191Z,6.86
2023-03-16T08:44:14.190Z,7.39
2023-03-16T08:46:42.346Z,8.00
2023-03-16T08:49:10.861Z,8.47
2023-03-16T08:51:38.701Z,7.76
2023-03-16T08:54:07.472Z,8.32
2023-03-16T08:56:35.303Z,8.52
2023-03-16T08:59:04.428Z,7.82
2023-03-16T09:01:32.418Z,8.10
2023-03-16T09:04:00.578Z,7.85
2023-03-16T09:06:28.830Z,8.00
2023-03-16T09:08:57.254Z,7.57
2023-03-16T09:11:28.286Z,8.01
2023-03-16T09:13:55.957Z,8.05
2023-03-16T09:16:25.645Z,8.77
2023-03-16T09:18:53.552Z,8.34
2023-03-16T09:21:21.411Z,7.88
2023-03-16T09:23:49.156Z,8.31
2023-03-16T09:26:16.847Z,8.35
2023-03-16T09:28:44.725Z,8.55
2023-03-16T09:31:18.351Z,8.90
2023-03-16T09:33:48.370Z,8.48
2023-03-16T09:36:17.688Z,8.82
2023-03-16T09:38:45.732Z,9.31
2023-03-16T09:41:30.496Z,9.80
2023-03-16T09:44:06.552Z,9.09
2023-03-16T09:46:40.569Z,9.09
2023-03-16T09:49:12.187Z,9.63
2023-03-16T09:51:48.902Z,9.91
2023-03-16T09:54:27.633Z,9.46
2023-03-16T09:56:56.825Z,9.53
2023-03-16T09:59:27.253Z,10.43
2023-03-16T10:02:06.884Z,10.31
2023-03-16T10:04:46.283Z,9.64
2023-03-16T10:07:26.598Z,9.78
2023-03-16T10:09:58.949Z,10.89
2023-03-16T10:12:32.861Z,11.03
2023-03-16T10:15:09.247Z,11.81
2023-03-16T10:17:41.201Z,11.58
2023-03-16T10:20:17.725Z,11.81
2023-03-16T10:22:47.898Z,10.98
2023-03-16T10:25:23.327Z,11.17
2023-03-16T10:27:51.571Z,10.72
2023-03-16T10:30:24.797Z,11.29
2023-03-16T10:32:53.507Z,11.25
2023-03-16T10:35:36.100Z,10.74
2023-03-16T10:38:03.970Z,10.37
2023-03-16T10:40:33.702Z,10.12
2023-03-16T10:43:08.678Z,10.36
2023-03-16T10:45:38.246Z,11.11
2023-03-16T10:48:14.132Z,10.65
2023-03-16T10:50:51.981Z,10.68
2023-03-16T10:53:23.706Z,10.86
2023-03-16T10:55:51.561Z,10.34
2023-03-16T10:58:29.649Z,10.25
2023-03-16T11:00:58.681Z,11.09
2023-03-16T11:03:29.094Z,11.42
2023-03-16T11:06:03.174Z,11.22
2023-03-16T11:08:34.958Z,11.57
2023-03-16T11:11:11.889Z,11.50
2023-03-16T11:13:45.613Z,11.82
2023-03-16T11:16:24.286Z,11.99
2023-03-16T11:18:55.626Z,11.37
2023-03-16T11:21:36.217Z,11.42
2023-03-16T11:24:06.881Z,12.63
2023-03-16T11:26:36.921Z,12.10
2023-03-16T11:29:13.304Z,12.39
2023-03-16T11:31:43.477Z,12.67
2023-03-16T11:34:17.879Z,12.97
2023-03-16T11:36:53.375Z,14.23
2023-03-16T11:39:32.859Z,14.04
2023-03-16T11:42:14.758Z,14.04
2023-03-16T11:44:50.451Z,14.07
2023-03-16T11:47:52.794Z,14.75
2023-03-16T11:50:25.403Z,15.12
2023-03-16T11:53:01.248Z,14.40
2023-03-16T11:55:39.182Z,14.22
2023-03-16T11:58:28.213Z,14.16
2023-03-16T12:01:09.357Z,14.39
2023-03-16T12:03:53.775Z,14.53
2023-03-16T12:06:31.740Z,14.60
2023-03-16T12:09:23.810Z,15.26
2023-03-16T12:11:58.012Z,15.60
2023-03-16T12:14:28.813Z,14.10
2023-03-16T12:17:04.073Z,14.84
2023-03-16T12:19:42.544Z,14.12
2023-03-16T12:22:18.741Z,14.65
2023-03-16T12:24:48.132Z,15.30
2023-03-16T12:27:18.992Z,15.34
2023-03-16T12:29:58.405Z,15.75
2023-03-16T12:32:36.415Z,15.03
2023-03-16T12:35:20.118Z,15.19
2023-03-16T12:37:57.603Z,15.10
2023-03-16T12:40:39.535Z,15.24
2023-03-16T12:43:19.482Z,14.74
2023-03-16T12:45:58.483Z,15.32
2023-03-16T12:48:30.232Z,14.13
2023-03-16T12:51:00.872Z,14.17
2023-03-16T12:53:47.256Z,14.62
2023-03-16T12:56:18.630Z,14.80
2023-03-16T12:58:49.266Z,14.46
2023-03-16T13:01:19.937Z,14.84
2023-03-16T13:03:50.394Z,14.41
2023-03-16T13:06:20.758Z,14.40
2023-03-16T13:08:53.969Z,14.67
2023-03-16T13:11:23.256Z,14.30
2023-03-16T13:13:55.237Z,14.79
2023-03-16T13:16:29.055Z,15.26
2023-03-16T13:18:57.508Z,15.12
2023-03-16T13:21:37.230Z,14.60
2023-03-16T13:24:26.699Z,15.44
2023-03-16T13:27:03.384Z,15.85
2023-03-16T13:29:33.460Z,15.93
2023-03-16T13:32:03.907Z,15.19
2023-03-16T13:34:33.748Z,15.45
2023-03-16T13:37:02.547Z,14.43
2023-03-16T13:39:31.961Z,14.66
2023-03-16T13:42:04.818Z,15.29
2023-03-16T13:44:33.588Z,14.98
2023-03-16T13:47:05.051Z,14.87
2023-03-16T13:49:32.742Z,14.84
2023-03-16T13:52:00.545Z,14.91
2023-03-16T13:54:30.745Z,14.19
2023-03-16T13:57:00.502Z,14.57
2023-03-16T13:59:30.318Z,15.17
2023-03-16T14:02:00.185Z,14.77
2023-03-16T14:04:30.784Z,14.51
2023-03-16T14:07:00.319Z,14.57
2023-03-16T14:09:30.586Z,14.59
2023-03-16T14:11:58.704Z,14.40
2023-03-16T14:14:31.127Z,14.41
2023-03-16T14:17:05.458Z,13.81
2023-03-16T14:19:42.517Z,13.24
2023-03-16T14:22:19.146Z,13.71
2023-03-16T14:24:54.582Z,14.03
2023-03-16T14:27:29.751Z,14.05
2023-03-16T14:30:05.525Z,14.39
2023-03-16T14:32:34.248Z,14.40
2023-03-16T14:35:12.939Z,14.35
2023-03-16T14:37:41.848Z,14.30
2023-03-16T14:40:24.251Z,14.21
2023-03-16T14:42:52.736Z,14.45
2023-03-16T14:45:22.869Z,14.27
2023-03-16T14:47:53.646Z,14.23
2023-03-16T14:50:25.144Z,14.09
2023-03-16T14:52:55.899Z,14.47
2023-03-16T14:55:24.996Z,14.75
2023-03-16T14:57:53.170Z,14.34
2023-03-16T15:00:23.260Z,14.42
2023-03-16T15:03:03.037Z,14.54
2023-03-16T15:05:36.336Z,14.31
2023-03-16T15:08:04.731Z,14.27
2023-03-16T15:10:35.242Z,14.48
2023-03-16T15:13:13.021Z,14.34
2023-03-16T15:15:42.904Z,13.96
2023-03-16T15:18:11.074Z,14.21
2023-03-16T15:20:42.288Z,14.11
2023-03-16T15:23:15.784Z,13.79
2023-03-16T15:25:44.874Z,13.98
2023-03-16T15:28:17.327Z,13.76
2023-03-16T15:30:49.526Z,14.01
2023-03-16T15:33:17.863Z,13.90
2023-03-16T15:35:47.715Z,13.83
2023-03-16T15:38:17.867Z,13.75
2023-03-16T15:40:47.964Z,13.94
2023-03-16T15:43:18.208Z,14.04
2023-03-16T15:45:48.640Z,13.71
2023-03-16T15:48:16.948Z,13.71
2023-03-16T15:50:48.414Z,13.77
2023-03-16T15:53:30.206Z,13.70
2023-03-16T15:56:03.014Z,13.61
2023-03-16T15:58:32.682Z,13.35
2023-03-16T16:01:03.804Z,13.26
2023-03-16T16:03:31.886Z,13.38
2023-03-16T16:05:59.672Z,13.20
2023-03-16T16:08:27.734Z,13.05
2023-03-16T16:10:57.044Z,13.11
2023-03-16T16:13:37.332Z,13.18
2023-03-16T16:16:13.907Z,13.20
2023-03-16T16:18:42.371Z,13.30
2023-03-16T16:21:17.124Z,13.00
2023-03-16T16:23:44.993Z,12.94
2023-03-16T16:26:26.307Z,12.72
2023-03-16T16:28:58.454Z,12.82
2023-03-16T16:31:29.999Z,12.77
2023-03-16T16:33:58.979Z,12.42
2023-03-16T16:36:27.808Z,12.32
2023-03-16T16:38:57.013Z,12.30
2023-03-16T16:41:28.542Z,12.34
2023-03-16T16:43:57.416Z,12.12
2023-03-16T16:46:28.489Z,12.13
2023-03-16T16:49:01.666Z,12.16
2023-03-16T16:51:30.738Z,12.16
2023-03-16T16:54:00.435Z,12.25
2023-03-16T16:56:30.659Z,12.09
2023-03-16T16:59:00.408Z,11.89
2023-03-16T17:01:33.008Z,11.78
2023-03-16T17:04:01.346Z,11.81
2023-03-16T17:06:29.624Z,11.44
2023-03-16T17:08:57.478Z,11.33
2023-03-16T17:11:26.991Z,11.70
2023-03-16T17:13:57.264Z,11.23
2023-03-16T17:16:27.484Z,11.30
2023-03-16T17:18:56.790Z,11.60
2023-03-16T17:21:26.797Z,11.50
2023-03-16T17:23:54.861Z,11.26
2023-03-16T17:26:25.296Z,10.94
2023-03-16T17:28:57.602Z,11.05
2023-03-16T17:31:27.806Z,11.25
2023-03-16T17:33:58.289Z,10.97
2023-03-16T17:36:26.611Z,11.07
2023-03-16T17:38:54.645Z,11.06
2023-03-16T17:41:24.674Z,11.38
2023-03-16T17:43:54.467Z,11.08
2023-03-16T17:46:25.082Z,11.24
2023-03-16T17:48:54.465Z,11.23
2023-03-16T17:51:26.234Z,11.10
2023-03-16T17:53:55.704Z,11.17
2023-03-16T17:56:25.579Z,10.86
2023-03-16T17:58:57.312Z,10.57
2023-03-16T18:01:29.064Z,10.65
2023-03-16T18:03:56.891Z,10.34
2023-03-16T18:06:27.592Z,10.29
2023-03-16T18:08:55.331Z,10.25
2023-03-16T18:11:26.254Z,10.20
2023-03-16T18:13:53.957Z,10.18
2023-03-16T18:16:28.062Z,9.81
2023-03-16T18:18:59.386Z,9.95
2023-03-16T18:21:28.744Z,9.84
2023-03-16T18:23:57.028Z,9.43
2023-03-16T18:26:24.811Z,9.54
2023-03-16T18:28:53.400Z,9.26
2023-03-16T18:31:23.765Z,9.08
2023-03-16T18:33:53.799Z,9.04
2023-03-16T18:36:27.515Z,8.82
2023-03-16T18:38:58.144Z,8.75
2023-03-16T18:41:27.488Z,8.60
2023-03-16T18:43:57.668Z,8.50
2023-03-16T18:46:27.400Z,8.45
2023-03-16T18:48:57.022Z,8.49
2023-03-16T18:51:25.513Z,8.38
2023-03-16T18:53:53.644Z,8.33
2023-03-16T18:56:24.832Z,8.35
2023-03-16T18:58:53.693Z,8.21
2023-03-16T19:01:27.669Z,8.22
2023-03-16T19:03:57.010Z,8.34
2023-03-16T19:06:29.505Z,8.34
2023-03-16T19:09:02.007Z,8.20
2023-03-16T19:11:31.410Z,8.09
2023-03-16T19:13:59.509Z,7.96
2023-03-16T19:16:27.206Z,7.97
2023-03-16T19:18:54.948Z,7.93
2023-03-16T19:21:23.921Z,7.84
2023-03-16T19:23:57.011Z,7.84
2023-03-16T19:26:25.469Z,7.74
2023-03-16T19:28:55.004Z,7.62
2023-03-16T19:31:24.943Z,7.66
2023-03-16T19:33:54.299Z,7.65
2023-03-16T19:36:24.790Z,7.68
2023-03-16T19:38:53.451Z,7.71
2023-03-16T19:41:24.868Z,7.44
2023-03-16T19:43:56.421Z,7.47
2023-03-16T19:46:26.036Z,7.21
2023-03-16T19:48:54.253Z,7.20
2023-03-16T19:51:22.459Z,7.18
2023-03-16T19:53:50.195Z,7.27
2023-03-16T19:56:21.996Z,7.28
2023-03-16T19:58:52.342Z,7.32
2023-03-16T20:01:24.543Z,7.20
2023-03-16T20:03:53.261Z,7.20
2023-03-16T20:06:23.178Z,7.10
2023-03-16T20:08:51.760Z,7.28
2023-03-16T20:11:26.138Z,7.31
2023-03-16T20:13:54.381Z,7.27
2023-03-16T20:16:28.416Z,7.28
2023-03-16T20:18:58.856Z,7.30
2023-03-16T20:21:27.431Z,7.17
2023-03-16T20:23:55.724Z,7.02
2023-03-16T20:26:27.007Z,7.07
2023-03-16T20:28:55.660Z,7.01
2023-03-16T20:31:27.142Z,7.03
2023-03-16T20:33:55.047Z,7.15
2023-03-16T20:36:23.946Z,6.90
2023-03-16T20:38:52.127Z,6.95
2023-03-16T20:41:26.355Z,7.24
2023-03-16T20:43:54.531Z,7.20
2023-03-16T20:46:27.343Z,7.11
2023-03-16T20:48:55.487Z,7.17
2023-03-16T20:51:23.421Z,7.22
2023-03-16T20:53:51.411Z,6.99
2023-03-16T20:56:21.882Z,7.25
2023-03-16T20:58:51.998Z,7.25
2023-03-16T21:01:22.377Z,7.24
2023-03-16T21:03:55.063Z,7.21
2023-03-16T21:06:25.266Z,6.98
2023-03-16T21:08:54.223Z,7.01
2023-03-16T21:11:24.686Z,7.02
2023-03-16T21:13:53.276Z,7.02
2023-03-16T21:16:22.250Z,7.01
2023-03-16T21:18:51.524Z,7.09
2023-03-16T21:21:21.267Z,7.14
2023-03-16T21:23:49.122Z,7.12
2023-03-16T21:26:19.453Z,6.95
2023-03-16T21:28:54.992Z,7.13
2023-03-16T21:31:23.148Z,7.08
2023-03-16T21:33:54.064Z,7.00
2023-03-16T21:36:24.572Z,7.10
2023-03-16T21:38:52.437Z,7.03
2023-03-16T21:41:21.026Z,7.01
2023-03-16T21:43:49.919Z,6.88
2023-03-16T21:46:20.915Z,6.97
2023-03-16T21:48:50.775Z,7.20
2023-03-16T21:51:24.812Z,6.97
2023-03-16T21:53:53.468Z,7.31
2023-03-16T21:56:23.766Z,7.36
2023-03-16T21:58:52.074Z,7.44
2023-03-16T22:01:24.716Z,7.40
2023-03-16T22:03:54.724Z,7.22
2023-03-16T22:06:25.557Z,7.09
2023-03-16T22:08:53.658Z,7.09
2023-03-16T22:11:23.428Z,7.08
2023-03-16T22:13:53.138Z,7.08
2023-03-16T22:16:23.386Z,7.10
2023-03-16T22:18:52.635Z,7.00
2023-03-16T22:21:34.204Z,6.99
2023-03-16T22:24:02.882Z,6.87
2023-03-16T22:26:31.012Z,7.16
2023-03-16T22:29:00.962Z,7.03
2023-03-16T22:31:33.546Z,7.22
2023-03-16T22:34:02.677Z,6.98
2023-03-16T22:36:33.154Z,6.88
2023-03-16T22:39:03.557Z,6.78
2023-03-16T22:41:31.810Z,6.78
2023-03-16T22:44:00.127Z,6.55
2023-03-16T22:46:29.310Z,6.70
2023-03-16T22:48:58.274Z,6.76
2023-03-16T22:51:30.281Z,6.89
2023-03-16T22:54:02.330Z,6.98
2023-03-16T22:56:31.304Z,6.96
2023-03-16T22:59:01.687Z,6.62
2023-03-16T23:01:34.048Z,6.79
2023-03-16T23:04:02.388Z,6.89
2023-03-16T23:06:32.456Z,6.96
2023-03-16T23:09:02.177Z,6.89
2023-03-16T23:11:32.141Z,6.66
2023-03-16T23:14:00.993Z,6.64
2023-03-16T23:16:32.250Z,6.91
2023-03-16T23:19:00.525Z,6.87
2023-03-16T23:21:30.152Z,7.01
2023-03-16T23:24:03.839Z,7.02
2023-03-16T23:26:33.365Z,6.70
2023-03-16T23:29:01.393Z,6.78
2023-03-16T23:31:30.138Z,6.67
2023-03-16T23:33:57.799Z,6.72
2023-03-16T23:36:26.248Z,6.71
2023-03-16T23:38:54.229Z,6.67
2023-03-16T23:41:24.300Z,6.29
2023-03-16T23:43:55.085Z,6.56
2023-03-16T23:46:25.300Z,6.50
2023-03-16T23:48:55.216Z,6.54
2023-03-16T23:51:26.521Z,6.57
2023-03-16T23:53:54.495Z,6.58
2023-03-16T23:56:23.107Z,6.62
2023-03-16T23:58:51.004Z,6.60
